Jasper, MO (64755)

3:06 PM CST on January 31, 2015 (GMT -0600)
Country Side Estates | Change Station
CLOSE
Current Station
Personal Weather Station
Location: Webb City, MO
Elevation: 968 ft
Nearby Weather Stations

Elev 968 ft 37.16 °N, 94.48 °W | Updated 6 minutes ago

Overcast
Overcast
48.9 °F
Feels Like 46 °F
N
7.3
Wind Variable Wind from SSW

Today
High -- | Low -- °F
--% Chance of Precip.
Yesterday
High -- | Low -- °F
Precip. -- in
7:21 AM 5:40 PM
Waxing Gibbous, 91% visible
Pressure 30.09 in
Visibility 10.0 miles
Clouds Mostly Cloudy 8000 ft
Overcast 9000 ft
Windchill 46 °F
Dew Point 22 °F
Humidity 34%
Rainfall 0.00 in
Snow Depth Not available.
UV 1 out of 12
Pollen .10 out of 12
Air Quality Not available.
Flu Activity Not available.
METAR KJLN 312053Z 18009KT 10SM BKN080 OVC090 09/M09 A3009 RMK AO2 SLP190 T00941089 56035

More Conditions Fewer Conditions

Pressure 30.09 in
Visibility 10.0 miles
Clouds Mostly Cloudy 8000 ft
Overcast 9000 ft
Windchill 46 °F
Dew Point 22 °F
Humidity 34%
Rainfall 0.00 in
Snow Depth Not available.
UV 1 out of 12
Pollen .10 out of 12
Air Quality Not available.
Flu Activity Not available.
METAR KJLN 312053Z 18009KT 10SM BKN080 OVC090 09/M09 A3009 RMK AO2 SLP190 T00941089 56035

More Conditions Fewer Conditions

10-Day Weather Forecast

Almanac

Astronomy

Jan. 31, 2015 Rise Set
Actual Time
Civil Twilight
Nautical Twilight
Astronomical Twilight
Moon
Length of Visible Light
Length of Day
Tomorrow will be .
, % of the Moon is Illuminated

Today's Extremes

State Highs State Lows

Community

WunderPhotos

Upload Photos

1,792,204 photos uploaded!

WunderBlogs® & News

Nearby

Air Quality

  Air Quality AQ Index Pollutant
Not available.

Snow Depth

Station Depth Elevation

Earthquake Activity

City Distance Mag. Time & Date
Minimum magnitude displayed is 2.5.

Coastal Water Temperatures

Place Temperature

Nearby Weather Stations